sensor_id;sensor_type;location;lat;lon;timestamp;temperature;humidity
19552;DHT22;9921;47.186;9.778;2022-08-01T00:02:02;21.20;99.90
19552;DHT22;9921;47.186;9.778;2022-08-01T00:04:29;21.10;99.90
19552;DHT22;9921;47.186;9.778;2022-08-01T00:06:58;20.90;99.90
19552;DHT22;9921;47.186;9.778;2022-08-01T00:09:24;20.80;99.90
19552;DHT22;9921;47.186;9.778;2022-08-01T00:11:51;20.80;99.90
19552;DHT22;9921;47.186;9.778;2022-08-01T00:14:18;20.90;99.90
19552;DHT22;9921;47.186;9.778;2022-08-01T00:16:45;20.90;99.90
19552;DHT22;9921;47.186;9.778;2022-08-01T00:19:12;20.90;99.90
19552;DHT22;9921;47.186;9.778;2022-08-01T00:21:39;20.90;99.90
19552;DHT22;9921;47.186;9.778;2022-08-01T00:24:07;20.90;99.90
19552;DHT22;9921;47.186;9.778;2022-08-01T00:26:35;20.70;99.90
19552;DHT22;9921;47.186;9.778;2022-08-01T00:29:04;20.60;99.90
19552;DHT22;9921;47.186;9.778;2022-08-01T00:31:31;20.40;99.90
19552;DHT22;9921;47.186;9.778;2022-08-01T00:33:58;20.30;99.90
19552;DHT22;9921;47.186;9.778;2022-08-01T00:36:25;20.20;99.90
19552;DHT22;9921;47.186;9.778;2022-08-01T00:38:52;20.20;99.90
19552;DHT22;9921;47.186;9.778;2022-08-01T00:41:20;20.20;99.90
19552;DHT22;9921;47.186;9.778;2022-08-01T00:43:47;20.30;99.90
19552;DHT22;9921;47.186;9.778;2022-08-01T00:46:14;20.40;99.90
19552;DHT22;9921;47.186;9.778;2022-08-01T00:48:41;20.50;99.90
19552;DHT22;9921;47.186;9.778;2022-08-01T00:51:08;20.50;99.90
19552;DHT22;9921;47.186;9.778;2022-08-01T00:53:35;20.50;99.90
19552;DHT22;9921;47.186;9.778;2022-08-01T00:56:02;20.30;99.90
19552;DHT22;9921;47.186;9.778;2022-08-01T00:58:31;20.20;99.90
19552;DHT22;9921;47.186;9.778;2022-08-01T01:00:59;20.20;99.90
19552;DHT22;9921;47.186;9.778;2022-08-01T01:03:26;20.30;99.90
19552;DHT22;9921;47.186;9.778;2022-08-01T01:06:01;20.30;99.90
19552;DHT22;9921;47.186;9.778;2022-08-01T01:08:35;20.40;99.90
19552;DHT22;9921;47.186;9.778;2022-08-01T01:11:10;20.40;99.90
19552;DHT22;9921;47.186;9.778;2022-08-01T01:13:43;20.50;99.90
19552;DHT22;9921;47.186;9.778;2022-08-01T01:16:15;20.50;99.90
19552;DHT22;9921;47.186;9.778;2022-08-01T01:18:45;20.60;99.90
19552;DHT22;9921;47.186;9.778;2022-08-01T01:21:30;20.60;99.90
19552;DHT22;9921;47.186;9.778;2022-08-01T01:24:11;20.70;99.90
19552;DHT22;9921;47.186;9.778;2022-08-01T01:26:45;20.50;99.90
19552;DHT22;9921;47.186;9.778;2022-08-01T01:29:21;20.40;99.90
19552;DHT22;9921;47.186;9.778;2022-08-01T01:31:52;20.40;99.90
19552;DHT22;9921;47.186;9.778;2022-08-01T01:34:22;20.40;99.90
19552;DHT22;9921;47.186;9.778;2022-08-01T01:36:52;20.40;99.90
19552;DHT22;9921;47.186;9.778;2022-08-01T01:39:21;20.40;99.90
19552;DHT22;9921;47.186;9.778;2022-08-01T01:41:48;20.50;99.90
19552;DHT22;9921;47.186;9.778;2022-08-01T01:44:18;20.60;99.90
19552;DHT22;9921;47.186;9.778;2022-08-01T01:46:46;20.60;99.90
19552;DHT22;9921;47.186;9.778;2022-08-01T01:49:14;20.60;99.90
19552;DHT22;9921;47.186;9.778;2022-08-01T01:51:44;20.60;99.90
19552;DHT22;9921;47.186;9.778;2022-08-01T01:54:13;20.70;99.90
19552;DHT22;9921;47.186;9.778;2022-08-01T01:56:41;20.60;99.90
19552;DHT22;9921;47.186;9.778;2022-08-01T01:59:18;20.60;99.90
19552;DHT22;9921;47.186;9.778;2022-08-01T02:01:46;20.60;99.90
19552;DHT22;9921;47.186;9.778;2022-08-01T02:04:14;20.60;99.90
19552;DHT22;9921;47.186;9.778;2022-08-01T02:06:43;20.60;99.90
19552;DHT22;9921;47.186;9.778;2022-08-01T02:09:14;20.50;99.90
19552;DHT22;9921;47.186;9.778;2022-08-01T02:11:43;20.50;99.90
19552;DHT22;9921;47.186;9.778;2022-08-01T02:14:11;20.40;99.90
19552;DHT22;9921;47.186;9.778;2022-08-01T02:16:42;20.50;99.90
19552;DHT22;9921;47.186;9.778;2022-08-01T02:19:10;20.40;99.90
19552;DHT22;9921;47.186;9.778;2022-08-01T02:21:40;20.20;99.90
19552;DHT22;9921;47.186;9.778;2022-08-01T02:24:12;20.20;99.90
19552;DHT22;9921;47.186;9.778;2022-08-01T02:26:44;20.20;99.90
19552;DHT22;9921;47.186;9.778;2022-08-01T02:29:16;20.10;99.90
19552;DHT22;9921;47.186;9.778;2022-08-01T02:31:46;20.20;99.90
19552;DHT22;9921;47.186;9.778;2022-08-01T02:34:17;20.20;99.90
19552;DHT22;9921;47.186;9.778;2022-08-01T02:36:46;20.20;99.90
19552;DHT22;9921;47.186;9.778;2022-08-01T02:39:16;20.10;99.90
19552;DHT22;9921;47.186;9.778;2022-08-01T02:41:47;20.10;99.90
19552;DHT22;9921;47.186;9.778;2022-08-01T02:44:21;19.90;99.90
19552;DHT22;9921;47.186;9.778;2022-08-01T02:46:52;19.60;99.90
19552;DHT22;9921;47.186;9.778;2022-08-01T02:49:22;19.60;99.90
19552;DHT22;9921;47.186;9.778;2022-08-01T02:51:51;19.70;99.90
19552;DHT22;9921;47.186;9.778;2022-08-01T02:54:20;19.70;99.90
19552;DHT22;9921;47.186;9.778;2022-08-01T02:56:48;19.60;99.90
19552;DHT22;9921;47.186;9.778;2022-08-01T02:59:18;19.60;99.90
19552;DHT22;9921;47.186;9.778;2022-08-01T03:01:47;19.60;99.90
19552;DHT22;9921;47.186;9.778;2022-08-01T03:04:16;19.60;99.90
19552;DHT22;9921;47.186;9.778;2022-08-01T03:06:44;19.30;99.90
19552;DHT22;9921;47.186;9.778;2022-08-01T03:09:13;19.20;99.90
19552;DHT22;9921;47.186;9.778;2022-08-01T03:11:42;19.20;99.90
19552;DHT22;9921;47.186;9.778;2022-08-01T03:14:10;19.30;99.90
19552;DHT22;9921;47.186;9.778;2022-08-01T03:16:39;19.30;99.90
19552;DHT22;9921;47.186;9.778;2022-08-01T03:19:10;19.30;99.90
19552;DHT22;9921;47.186;9.778;2022-08-01T03:21:41;19.30;99.90
19552;DHT22;9921;47.186;9.778;2022-08-01T03:24:10;19.30;99.90
19552;DHT22;9921;47.186;9.778;2022-08-01T03:26:39;19.30;99.90
19552;DHT22;9921;47.186;9.778;2022-08-01T03:29:12;19.00;99.90
19552;DHT22;9921;47.186;9.778;2022-08-01T03:31:40;19.10;99.90
19552;DHT22;9921;47.186;9.778;2022-08-01T03:34:10;19.00;99.90
19552;DHT22;9921;47.186;9.778;2022-08-01T03:36:45;19.10;99.90
19552;DHT22;9921;47.186;9.778;2022-08-01T03:39:14;19.10;99.90
19552;DHT22;9921;47.186;9.778;2022-08-01T03:41:46;19.10;99.90
19552;DHT22;9921;47.186;9.778;2022-08-01T03:44:17;19.20;99.90
19552;DHT22;9921;47.186;9.778;2022-08-01T03:46:48;19.10;99.90
19552;DHT22;9921;47.186;9.778;2022-08-01T03:49:20;18.90;99.90
19552;DHT22;9921;47.186;9.778;2022-08-01T03:51:50;18.80;99.90
19552;DHT22;9921;47.186;9.778;2022-08-01T03:54:21;18.80;99.90
19552;DHT22;9921;47.186;9.778;2022-08-01T03:56:51;18.90;99.90
19552;DHT22;9921;47.186;9.778;2022-08-01T03:59:18;19.00;99.90
19552;DHT22;9921;47.186;9.778;2022-08-01T04:01:47;19.00;99.90
19552;DHT22;9921;47.186;9.778;2022-08-01T04:04:15;19.10;99.90
19552;DHT22;9921;47.186;9.778;2022-08-01T04:06:42;19.10;99.90
19552;DHT22;9921;47.186;9.778;2022-08-01T04:09:11;19.20;99.90
19552;DHT22;9921;47.186;9.778;2022-08-01T04:11:38;19.10;99.90
19552;DHT22;9921;47.186;9.778;2022-08-01T04:14:06;18.90;99.90
19552;DHT22;9921;47.186;9.778;2022-08-01T04:16:33;18.70;99.90
19552;DHT22;9921;47.186;9.778;2022-08-01T04:19:00;18.60;99.90
19552;DHT22;9921;47.186;9.778;2022-08-01T04:21:29;18.70;99.90
19552;DHT22;9921;47.186;9.778;2022-08-01T04:24:01;18.80;99.90
19552;DHT22;9921;47.186;9.778;2022-08-01T04:26:32;18.80;99.90
19552;DHT22;9921;47.186;9.778;2022-08-01T04:29:02;18.90;99.90
19552;DHT22;9921;47.186;9.778;2022-08-01T04:31:31;19.00;99.90
19552;DHT22;9921;47.186;9.778;2022-08-01T04:34:02;19.10;99.90
19552;DHT22;9921;47.186;9.778;2022-08-01T04:36:33;19.00;99.90
19552;DHT22;9921;47.186;9.778;2022-08-01T04:39:02;18.90;99.90
19552;DHT22;9921;47.186;9.778;2022-08-01T04:41:32;18.90;99.90
19552;DHT22;9921;47.186;9.778;2022-08-01T04:44:01;18.90;99.90
19552;DHT22;9921;47.186;9.778;2022-08-01T04:46:29;19.00;99.90
19552;DHT22;9921;47.186;9.778;2022-08-01T04:48:58;19.10;99.90
19552;DHT22;9921;47.186;9.778;2022-08-01T04:51:26;19.20;99.90
19552;DHT22;9921;47.186;9.778;2022-08-01T04:53:53;19.20;99.90
19552;DHT22;9921;47.186;9.778;2022-08-01T04:56:20;19.20;99.90
19552;DHT22;9921;47.186;9.778;2022-08-01T04:58:48;19.10;99.90
19552;DHT22;9921;47.186;9.778;2022-08-01T05:01:35;19.00;99.90
19552;DHT22;9921;47.186;9.778;2022-08-01T05:04:02;19.00;99.90
19552;DHT22;9921;47.186;9.778;2022-08-01T05:06:29;19.10;99.90
19552;DHT22;9921;47.186;9.778;2022-08-01T05:08:56;19.20;99.90
19552;DHT22;9921;47.186;9.778;2022-08-01T05:11:23;19.30;99.90
19552;DHT22;9921;47.186;9.778;2022-08-01T05:13:51;19.40;99.90
19552;DHT22;9921;47.186;9.778;2022-08-01T05:16:18;19.50;99.90
19552;DHT22;9921;47.186;9.778;2022-08-01T05:18:45;19.50;99.90
19552;DHT22;9921;47.186;9.778;2022-08-01T05:21:12;19.60;99.90
19552;DHT22;9921;47.186;9.778;2022-08-01T05:23:38;19.60;99.90
19552;DHT22;9921;47.186;9.778;2022-08-01T05:26:05;19.50;99.90
19552;DHT22;9921;47.186;9.778;2022-08-01T05:28:33;19.50;99.90
19552;DHT22;9921;47.186;9.778;2022-08-01T05:31:01;19.60;99.90
19552;DHT22;9921;47.186;9.778;2022-08-01T05:33:28;19.50;99.90
19552;DHT22;9921;47.186;9.778;2022-08-01T05:35:55;19.50;99.90
19552;DHT22;9921;47.186;9.778;2022-08-01T05:38:22;19.60;99.90
19552;DHT22;9921;47.186;9.778;2022-08-01T05:40:49;19.60;99.90
19552;DHT22;9921;47.186;9.778;2022-08-01T05:43:16;19.60;99.90
19552;DHT22;9921;47.186;9.778;2022-08-01T05:45:43;19.70;99.90
19552;DHT22;9921;47.186;9.778;2022-08-01T05:48:11;19.70;99.90
19552;DHT22;9921;47.186;9.778;2022-08-01T05:50:38;19.80;99.90
19552;DHT22;9921;47.186;9.778;2022-08-01T05:53:05;19.90;99.90
19552;DHT22;9921;47.186;9.778;2022-08-01T05:55:32;20.00;99.90
19552;DHT22;9921;47.186;9.778;2022-08-01T05:57:58;20.10;99.90
19552;DHT22;9921;47.186;9.778;2022-08-01T06:00:25;20.20;99.90
19552;DHT22;9921;47.186;9.778;2022-08-01T06:02:52;20.30;99.90
19552;DHT22;9921;47.186;9.778;2022-08-01T06:05:21;20.40;99.90
19552;DHT22;9921;47.186;9.778;2022-08-01T06:07:47;20.60;99.90
19552;DHT22;9921;47.186;9.778;2022-08-01T06:10:14;20.70;99.90
19552;DHT22;9921;47.186;9.778;2022-08-01T06:12:41;20.80;99.90
19552;DHT22;9921;47.186;9.778;2022-08-01T06:15:09;21.00;99.90
19552;DHT22;9921;47.186;9.778;2022-08-01T06:17:36;21.10;99.90
19552;DHT22;9921;47.186;9.778;2022-08-01T06:20:05;21.30;99.90
19552;DHT22;9921;47.186;9.778;2022-08-01T06:22:33;21.40;99.90
19552;DHT22;9921;47.186;9.778;2022-08-01T06:25:00;21.50;99.90
19552;DHT22;9921;47.186;9.778;2022-08-01T06:27:27;21.60;99.90
19552;DHT22;9921;47.186;9.778;2022-08-01T06:29:54;21.60;99.90
19552;DHT22;9921;47.186;9.778;2022-08-01T06:32:22;21.60;99.90
19552;DHT22;9921;47.186;9.778;2022-08-01T06:34:50;21.70;99.90
19552;DHT22;9921;47.186;9.778;2022-08-01T06:37:17;21.70;99.90
19552;DHT22;9921;47.186;9.778;2022-08-01T06:39:45;21.80;99.90
19552;DHT22;9921;47.186;9.778;2022-08-01T06:42:12;21.80;99.90
19552;DHT22;9921;47.186;9.778;2022-08-01T06:44:40;21.90;99.90
19552;DHT22;9921;47.186;9.778;2022-08-01T06:47:07;21.90;99.90
19552;DHT22;9921;47.186;9.778;2022-08-01T06:49:34;21.80;99.90
19552;DHT22;9921;47.186;9.778;2022-08-01T06:52:01;21.80;99.90
19552;DHT22;9921;47.186;9.778;2022-08-01T06:54:29;21.90;99.90
19552;DHT22;9921;47.186;9.778;2022-08-01T06:56:57;21.90;99.90
19552;DHT22;9921;47.186;9.778;2022-08-01T06:59:24;22.00;99.90
19552;DHT22;9921;47.186;9.778;2022-08-01T07:01:51;22.00;99.90
19552;DHT22;9921;47.186;9.778;2022-08-01T07:04:18;22.10;99.90
19552;DHT22;9921;47.186;9.778;2022-08-01T07:06:45;22.10;99.90
19552;DHT22;9921;47.186;9.778;2022-08-01T07:09:11;22.20;99.90
19552;DHT22;9921;47.186;9.778;2022-08-01T07:11:38;22.20;99.90
19552;DHT22;9921;47.186;9.778;2022-08-01T07:14:06;22.20;99.90
19552;DHT22;9921;47.186;9.778;2022-08-01T07:16:33;22.20;99.90
19552;DHT22;9921;47.186;9.778;2022-08-01T07:19:00;22.30;99.90
19552;DHT22;9921;47.186;9.778;2022-08-01T07:21:27;22.40;99.90
19552;DHT22;9921;47.186;9.778;2022-08-01T07:23:54;22.30;99.90
19552;DHT22;9921;47.186;9.778;2022-08-01T07:26:21;22.40;99.90
19552;DHT22;9921;47.186;9.778;2022-08-01T07:28:50;22.50;99.90
19552;DHT22;9921;47.186;9.778;2022-08-01T07:31:18;22.50;99.90
19552;DHT22;9921;47.186;9.778;2022-08-01T07:33:45;22.50;99.90
19552;DHT22;9921;47.186;9.778;2022-08-01T07:36:12;22.50;99.90
19552;DHT22;9921;47.186;9.778;2022-08-01T07:38:39;22.70;99.90
19552;DHT22;9921;47.186;9.778;2022-08-01T07:41:06;22.70;99.90
19552;DHT22;9921;47.186;9.778;2022-08-01T07:43:33;22.90;99.90
19552;DHT22;9921;47.186;9.778;2022-08-01T07:46:01;23.00;99.90
19552;DHT22;9921;47.186;9.778;2022-08-01T07:48:29;23.10;99.90
19552;DHT22;9921;47.186;9.778;2022-08-01T07:50:57;23.10;99.90
19552;DHT22;9921;47.186;9.778;2022-08-01T07:53:23;23.10;99.90
19552;DHT22;9921;47.186;9.778;2022-08-01T07:55:51;23.10;99.90
19552;DHT22;9921;47.186;9.778;2022-08-01T07:58:18;23.20;99.90
19552;DHT22;9921;47.186;9.778;2022-08-01T08:00:45;23.30;99.90
19552;DHT22;9921;47.186;9.778;2022-08-01T08:03:11;23.40;99.90
19552;DHT22;9921;47.186;9.778;2022-08-01T08:05:40;23.50;99.90
19552;DHT22;9921;47.186;9.778;2022-08-01T08:08:08;23.60;99.90
19552;DHT22;9921;47.186;9.778;2022-08-01T08:10:36;23.70;99.90
19552;DHT22;9921;47.186;9.778;2022-08-01T08:13:03;23.80;99.90
19552;DHT22;9921;47.186;9.778;2022-08-01T08:15:29;23.80;99.90
19552;DHT22;9921;47.186;9.778;2022-08-01T08:17:56;24.00;99.90
19552;DHT22;9921;47.186;9.778;2022-08-01T08:20:23;24.10;99.90
19552;DHT22;9921;47.186;9.778;2022-08-01T08:22:54;24.20;99.90
19552;DHT22;9921;47.186;9.778;2022-08-01T08:25:22;24.40;99.90
19552;DHT22;9921;47.186;9.778;2022-08-01T08:27:49;24.40;99.90
19552;DHT22;9921;47.186;9.778;2022-08-01T08:30:16;24.50;99.90
19552;DHT22;9921;47.186;9.778;2022-08-01T08:32:43;24.60;99.90
19552;DHT22;9921;47.186;9.778;2022-08-01T08:35:10;24.70;99.90
19552;DHT22;9921;47.186;9.778;2022-08-01T08:37:37;24.80;99.90
19552;DHT22;9921;47.186;9.778;2022-08-01T08:40:07;24.90;99.90
19552;DHT22;9921;47.186;9.778;2022-08-01T08:42:34;25.00;99.90
19552;DHT22;9921;47.186;9.778;2022-08-01T08:45:01;25.10;99.90
19552;DHT22;9921;47.186;9.778;2022-08-01T08:47:31;25.10;99.90
19552;DHT22;9921;47.186;9.778;2022-08-01T08:50:01;25.30;99.90
19552;DHT22;9921;47.186;9.778;2022-08-01T08:52:30;25.50;99.90
19552;DHT22;9921;47.186;9.778;2022-08-01T08:54:57;25.60;99.90
19552;DHT22;9921;47.186;9.778;2022-08-01T08:57:26;25.80;99.90
19552;DHT22;9921;47.186;9.778;2022-08-01T08:59:53;26.00;99.90
19552;DHT22;9921;47.186;9.778;2022-08-01T09:02:21;26.10;99.90
19552;DHT22;9921;47.186;9.778;2022-08-01T09:04:48;26.20;99.90
19552;DHT22;9921;47.186;9.778;2022-08-01T09:07:15;26.40;99.90
19552;DHT22;9921;47.186;9.778;2022-08-01T09:09:42;26.40;99.90
19552;DHT22;9921;47.186;9.778;2022-08-01T09:12:09;26.50;99.90
19552;DHT22;9921;47.186;9.778;2022-08-01T09:14:45;26.60;99.90
19552;DHT22;9921;47.186;9.778;2022-08-01T09:17:12;26.70;99.90
19552;DHT22;9921;47.186;9.778;2022-08-01T09:19:40;26.80;99.90
19552;DHT22;9921;47.186;9.778;2022-08-01T09:22:09;26.90;99.90
19552;DHT22;9921;47.186;9.778;2022-08-01T09:24:37;26.90;99.90
19552;DHT22;9921;47.186;9.778;2022-08-01T09:27:16;26.90;99.90
19552;DHT22;9921;47.186;9.778;2022-08-01T09:29:45;26.90;99.90
19552;DHT22;9921;47.186;9.778;2022-08-01T09:32:12;26.80;99.90
19552;DHT22;9921;47.186;9.778;2022-08-01T09:34:39;26.90;99.90
19552;DHT22;9921;47.186;9.778;2022-08-01T09:37:06;27.00;99.90
19552;DHT22;9921;47.186;9.778;2022-08-01T09:39:34;27.10;99.90
19552;DHT22;9921;47.186;9.778;2022-08-01T09:42:20;27.20;99.90
19552;DHT22;9921;47.186;9.778;2022-08-01T09:44:48;27.30;99.90
19552;DHT22;9921;47.186;9.778;2022-08-01T09:47:16;27.30;99.90
19552;DHT22;9921;47.186;9.778;2022-08-01T09:49:43;27.40;99.90
19552;DHT22;9921;47.186;9.778;2022-08-01T09:52:12;27.50;99.90
19552;DHT22;9921;47.186;9.778;2022-08-01T09:54:41;27.60;99.90
19552;DHT22;9921;47.186;9.778;2022-08-01T09:57:13;27.70;99.90
19552;DHT22;9921;47.186;9.778;2022-08-01T09:59:41;27.80;99.90
19552;DHT22;9921;47.186;9.778;2022-08-01T10:02:11;27.80;99.90
19552;DHT22;9921;47.186;9.778;2022-08-01T10:04:48;27.90;99.90
19552;DHT22;9921;47.186;9.778;2022-08-01T10:07:15;28.00;99.90
19552;DHT22;9921;47.186;9.778;2022-08-01T10:09:42;28.10;99.90
19552;DHT22;9921;47.186;9.778;2022-08-01T10:12:11;28.20;99.90
19552;DHT22;9921;47.186;9.778;2022-08-01T10:14:38;28.30;99.90
19552;DHT22;9921;47.186;9.778;2022-08-01T10:17:07;28.30;99.90
19552;DHT22;9921;47.186;9.778;2022-08-01T10:19:36;28.40;99.90
19552;DHT22;9921;47.186;9.778;2022-08-01T10:22:07;28.40;99.90
19552;DHT22;9921;47.186;9.778;2022-08-01T10:24:37;28.50;99.90
19552;DHT22;9921;47.186;9.778;2022-08-01T10:27:07;28.50;99.90
19552;DHT22;9921;47.186;9.778;2022-08-01T10:29:40;28.60;99.90
19552;DHT22;9921;47.186;9.778;2022-08-01T10:32:09;28.60;99.90
19552;DHT22;9921;47.186;9.778;2022-08-01T10:34:38;28.50;99.90
19552;DHT22;9921;47.186;9.778;2022-08-01T10:37:05;28.70;99.90
19552;DHT22;9921;47.186;9.778;2022-08-01T10:39:33;28.80;99.90
19552;DHT22;9921;47.186;9.778;2022-08-01T10:42:01;28.90;99.90
19552;DHT22;9921;47.186;9.778;2022-08-01T10:44:30;29.00;99.90
19552;DHT22;9921;47.186;9.778;2022-08-01T10:47:03;29.20;99.90
19552;DHT22;9921;47.186;9.778;2022-08-01T10:49:34;29.40;99.90
19552;DHT22;9921;47.186;9.778;2022-08-01T10:52:04;29.50;99.90
19552;DHT22;9921;47.186;9.778;2022-08-01T10:54:39;29.60;99.90
19552;DHT22;9921;47.186;9.778;2022-08-01T10:57:07;29.60;99.90
19552;DHT22;9921;47.186;9.778;2022-08-01T10:59:36;29.70;99.90
19552;DHT22;9921;47.186;9.778;2022-08-01T11:02:26;29.80;99.90
19552;DHT22;9921;47.186;9.778;2022-08-01T11:04:55;29.80;99.90
19552;DHT22;9921;47.186;9.778;2022-08-01T11:07:42;29.70;99.90
19552;DHT22;9921;47.186;9.778;2022-08-01T11:10:16;29.70;99.90
19552;DHT22;9921;47.186;9.778;2022-08-01T11:12:45;29.70;99.90
19552;DHT22;9921;47.186;9.778;2022-08-01T11:15:23;29.80;99.90
19552;DHT22;9921;47.186;9.778;2022-08-01T11:17:54;29.90;99.90
19552;DHT22;9921;47.186;9.778;2022-08-01T11:20:22;29.90;99.90
19552;DHT22;9921;47.186;9.778;2022-08-01T11:23:25;30.00;99.90
19552;DHT22;9921;47.186;9.778;2022-08-01T11:26:23;30.00;99.90
19552;DHT22;9921;47.186;9.778;2022-08-01T11:29:17;30.10;99.90
19552;DHT22;9921;47.186;9.778;2022-08-01T11:31:44;30.20;99.90
19552;DHT22;9921;47.186;9.778;2022-08-01T11:34:11;30.30;99.90
19552;DHT22;9921;47.186;9.778;2022-08-01T11:36:38;30.40;99.90
19552;DHT22;9921;47.186;9.778;2022-08-01T11:39:16;30.50;99.90
19552;DHT22;9921;47.186;9.778;2022-08-01T11:41:45;30.60;99.90
19552;DHT22;9921;47.186;9.778;2022-08-01T11:44:20;30.60;99.90
19552;DHT22;9921;47.186;9.778;2022-08-01T11:46:58;30.70;99.90
19552;DHT22;9921;47.186;9.778;2022-08-01T11:49:37;30.80;99.90
19552;DHT22;9921;47.186;9.778;2022-08-01T11:52:11;30.80;99.90
19552;DHT22;9921;47.186;9.778;2022-08-01T11:54:41;30.80;99.90
19552;DHT22;9921;47.186;9.778;2022-08-01T11:57:10;30.80;99.90
19552;DHT22;9921;47.186;9.778;2022-08-01T11:59:40;30.70;99.90
19552;DHT22;9921;47.186;9.778;2022-08-01T12:02:18;30.70;99.90
19552;DHT22;9921;47.186;9.778;2022-08-01T12:04:46;30.60;99.90
19552;DHT22;9921;47.186;9.778;2022-08-01T12:07:14;30.60;99.70
19552;DHT22;9921;47.186;9.778;2022-08-01T12:09:42;30.60;99.90
19552;DHT22;9921;47.186;9.778;2022-08-01T12:12:09;30.60;99.90
19552;DHT22;9921;47.186;9.778;2022-08-01T12:14:36;30.70;99.90
19552;DHT22;9921;47.186;9.778;2022-08-01T12:17:03;30.70;99.90
19552;DHT22;9921;47.186;9.778;2022-08-01T12:19:30;30.70;99.90
19552;DHT22;9921;47.186;9.778;2022-08-01T12:22:11;30.70;99.90
19552;DHT22;9921;47.186;9.778;2022-08-01T12:24:42;30.80;99.90
19552;DHT22;9921;47.186;9.778;2022-08-01T12:27:10;30.80;99.90
19552;DHT22;9921;47.186;9.778;2022-08-01T12:29:39;30.70;99.90
19552;DHT22;9921;47.186;9.778;2022-08-01T12:32:23;30.70;99.90
19552;DHT22;9921;47.186;9.778;2022-08-01T12:34:51;30.70;99.60
19552;DHT22;9921;47.186;9.778;2022-08-01T12:37:18;30.90;99.90
19552;DHT22;9921;47.186;9.778;2022-08-01T12:39:47;31.00;99.90
19552;DHT22;9921;47.186;9.778;2022-08-01T12:42:14;31.10;99.10
19552;DHT22;9921;47.186;9.778;2022-08-01T12:44:44;31.20;99.90
19552;DHT22;9921;47.186;9.778;2022-08-01T12:47:12;31.30;99.20
19552;DHT22;9921;47.186;9.778;2022-08-01T12:49:41;31.20;99.90
19552;DHT22;9921;47.186;9.778;2022-08-01T12:52:09;31.30;97.60
19552;DHT22;9921;47.186;9.778;2022-08-01T12:55:13;31.30;96.80
19552;DHT22;9921;47.186;9.778;2022-08-01T12:57:42;31.20;96.00
19552;DHT22;9921;47.186;9.778;2022-08-01T13:00:14;31.40;98.00
19552;DHT22;9921;47.186;9.778;2022-08-01T13:02:43;31.30;97.90
19552;DHT22;9921;47.186;9.778;2022-08-01T13:05:11;31.40;94.60
19552;DHT22;9921;47.186;9.778;2022-08-01T13:07:41;31.40;96.90
19552;DHT22;9921;47.186;9.778;2022-08-01T13:10:08;31.50;98.20
19552;DHT22;9921;47.186;9.778;2022-08-01T13:12:37;31.50;98.30
19552;DHT22;9921;47.186;9.778;2022-08-01T13:15:23;31.60;97.70
19552;DHT22;9921;47.186;9.778;2022-08-01T13:17:51;31.60;97.40
19552;DHT22;9921;47.186;9.778;2022-08-01T13:20:22;31.50;96.60
19552;DHT22;9921;47.186;9.778;2022-08-01T13:22:50;31.60;96.00
19552;DHT22;9921;47.186;9.778;2022-08-01T13:25:17;31.70;97.20
19552;DHT22;9921;47.186;9.778;2022-08-01T13:27:45;31.70;97.30
19552;DHT22;9921;47.186;9.778;2022-08-01T13:30:15;31.70;98.60
19552;DHT22;9921;47.186;9.778;2022-08-01T13:32:42;31.70;98.10
19552;DHT22;9921;47.186;9.778;2022-08-01T13:35:11;31.80;97.90
19552;DHT22;9921;47.186;9.778;2022-08-01T13:37:40;31.80;97.70
19552;DHT22;9921;47.186;9.778;2022-08-01T13:40:09;31.80;97.10
19552;DHT22;9921;47.186;9.778;2022-08-01T13:42:36;31.70;95.60
19552;DHT22;9921;47.186;9.778;2022-08-01T13:45:06;31.60;97.10
19552;DHT22;9921;47.186;9.778;2022-08-01T13:47:36;31.60;97.70
19552;DHT22;9921;47.186;9.778;2022-08-01T13:50:05;31.50;96.80
19552;DHT22;9921;47.186;9.778;2022-08-01T13:52:31;31.50;97.10
19552;DHT22;9921;47.186;9.778;2022-08-01T13:54:59;31.60;97.90
19552;DHT22;9921;47.186;9.778;2022-08-01T13:57:26;31.50;97.50
19552;DHT22;9921;47.186;9.778;2022-08-01T13:59:53;31.60;97.00
19552;DHT22;9921;47.186;9.778;2022-08-01T14:02:21;31.70;96.60
19552;DHT22;9921;47.186;9.778;2022-08-01T14:04:48;31.70;96.00
19552;DHT22;9921;47.186;9.778;2022-08-01T14:07:15;31.60;97.00
19552;DHT22;9921;47.186;9.778;2022-08-01T14:09:42;31.60;97.90
19552;DHT22;9921;47.186;9.778;2022-08-01T14:12:08;31.60;97.80
19552;DHT22;9921;47.186;9.778;2022-08-01T14:14:35;31.60;97.10
19552;DHT22;9921;47.186;9.778;2022-08-01T14:17:03;31.70;98.50
19552;DHT22;9921;47.186;9.778;2022-08-01T14:19:31;31.80;96.80
19552;DHT22;9921;47.186;9.778;2022-08-01T14:21:58;31.80;97.00
19552;DHT22;9921;47.186;9.778;2022-08-01T14:24:25;31.70;96.70
19552;DHT22;9921;47.186;9.778;2022-08-01T14:26:52;31.50;96.30
19552;DHT22;9921;47.186;9.778;2022-08-01T14:29:19;31.40;97.10
19552;DHT22;9921;47.186;9.778;2022-08-01T14:31:46;31.40;96.50
19552;DHT22;9921;47.186;9.778;2022-08-01T14:34:13;31.50;98.40
19552;DHT22;9921;47.186;9.778;2022-08-01T14:36:42;31.50;97.80
19552;DHT22;9921;47.186;9.778;2022-08-01T14:39:09;31.50;97.10
19552;DHT22;9921;47.186;9.778;2022-08-01T14:41:36;31.70;96.40
19552;DHT22;9921;47.186;9.778;2022-08-01T14:44:03;31.70;97.70
19552;DHT22;9921;47.186;9.778;2022-08-01T14:46:31;31.70;99.20
19552;DHT22;9921;47.186;9.778;2022-08-01T14:48:58;31.60;96.50
19552;DHT22;9921;47.186;9.778;2022-08-01T14:51:24;31.60;98.50
19552;DHT22;9921;47.186;9.778;2022-08-01T14:53:53;31.60;97.60
19552;DHT22;9921;47.186;9.778;2022-08-01T14:56:20;31.60;97.60
19552;DHT22;9921;47.186;9.778;2022-08-01T14:58:47;31.50;96.70
19552;DHT22;9921;47.186;9.778;2022-08-01T15:01:14;31.40;95.40
19552;DHT22;9921;47.186;9.778;2022-08-01T15:03:41;31.40;96.40
19552;DHT22;9921;47.186;9.778;2022-08-01T15:06:08;31.30;96.20
19552;DHT22;9921;47.186;9.778;2022-08-01T15:08:37;31.30;95.80
19552;DHT22;9921;47.186;9.778;2022-08-01T15:11:05;31.20;95.50
19552;DHT22;9921;47.186;9.778;2022-08-01T15:13:34;31.10;97.20
19552;DHT22;9921;47.186;9.778;2022-08-01T15:16:01;31.00;94.40
19552;DHT22;9921;47.186;9.778;2022-08-01T15:18:28;31.00;94.50
19552;DHT22;9921;47.186;9.778;2022-08-01T15:20:55;30.90;95.10
19552;DHT22;9921;47.186;9.778;2022-08-01T15:23:22;30.80;94.60
19552;DHT22;9921;47.186;9.778;2022-08-01T15:25:49;30.70;95.60
19552;DHT22;9921;47.186;9.778;2022-08-01T15:28:17;30.60;94.40
19552;DHT22;9921;47.186;9.778;2022-08-01T15:30:45;30.60;95.60
19552;DHT22;9921;47.186;9.778;2022-08-01T15:33:12;30.60;94.00
19552;DHT22;9921;47.186;9.778;2022-08-01T15:35:39;30.70;96.00
19552;DHT22;9921;47.186;9.778;2022-08-01T15:38:06;30.80;95.60
19552;DHT22;9921;47.186;9.778;2022-08-01T15:40:33;30.80;96.90
19552;DHT22;9921;47.186;9.778;2022-08-01T15:43:00;30.80;95.40
19552;DHT22;9921;47.186;9.778;2022-08-01T15:45:28;30.90;95.10
19552;DHT22;9921;47.186;9.778;2022-08-01T15:47:55;30.80;93.90
19552;DHT22;9921;47.186;9.778;2022-08-01T15:50:22;30.50;95.40
19552;DHT22;9921;47.186;9.778;2022-08-01T15:52:49;30.50;93.80
19552;DHT22;9921;47.186;9.778;2022-08-01T15:55:16;30.40;95.30
19552;DHT22;9921;47.186;9.778;2022-08-01T15:57:43;30.30;95.10